»·PEaware :: N907DJ KABQ-KSGU

N907DJ :: KABQ-KSGU

FLIGHT INFORMATION

Flight Status: Arrived
Operator: Privately registered:
United States
More flights under this callsign
Pilot: Drew L. (13237)
Aircraft: BOEING 737-300
(B733)
More flights by this aircraft type
Origin: KABQ Albuquerque Intl Sunport
United States
Destination: KSGU St George Mun
United States
More flights between these airports :: More routes between these airports
Route: +RDRNR3 GUP TBC
File this flight plan on PilotEdge
Remarks: PBN / A1B3B4B5D3D4 DOF / 181006 REG / N372SB EET / KZDV0031 KZLA0044 PER / C RMK / TCAS SIMBRIEF
Altitude:
(Current/Filed)
30,000ft
Speed:
(Current/Filed)
420kts
Departed: 05-Oct-18 05:45 PM
Arrived: 05-Oct-18 06:55 PM
Distance/Time
Traveled:
355nm/1:10
Distance/Time
To Go:
Arrived

Flight Plot

Page will automatically refresh every two minutes.

Flight plan parsing failed; only flown route is shown


Map Options




Map Legend


Flown Route
Filed Route
Departure Airport
Arrival Airport
Navaid (VOR, NDB)
Fix

Horizontal Profiles

Position Reports

Time Latitude Longitude Heading Altitude Ground
Speed
05-Oct-18 17:17 35.039105 -106.617442 268 5322ft 0kts
05-Oct-18 17:18 35.039105 -106.617442 268 5322ft 0kts
05-Oct-18 17:19 35.039105 -106.617442 268 5322ft 0kts
05-Oct-18 17:20 35.039105 -106.617442 268 5322ft 0kts
05-Oct-18 17:21 35.039105 -106.617442 268 5322ft 0kts
05-Oct-18 17:22 35.039105 -106.617442 268 5322ft 0kts
05-Oct-18 17:23 35.039105 -106.617442 268 5322ft 0kts
05-Oct-18 17:24 35.039105 -106.617442 268 5322ft 0kts
05-Oct-18 17:25 35.039105 -106.617442 268 5322ft 0kts
05-Oct-18 17:26 35.039105 -106.617442 268 5322ft 0kts
05-Oct-18 17:27 35.039105 -106.617442 268 5322ft 0kts
05-Oct-18 17:28 35.039105 -106.617442 268 5322ft 0kts
05-Oct-18 17:29 35.039105 -106.617442 268 5322ft 0kts
05-Oct-18 17:30 35.039105 -106.617442 268 5322ft 0kts
05-Oct-18 17:31 35.039105 -106.617442 268 5322ft 0kts
05-Oct-18 17:32 35.039105 -106.617442 268 5322ft 0kts
05-Oct-18 17:33 35.039105 -106.617442 268 5322ft 0kts
05-Oct-18 17:34 35.039105 -106.617442 268 5322ft 0kts
05-Oct-18 17:35 35.039105 -106.617442 268 5322ft 0kts
05-Oct-18 17:36 35.039105 -106.617442 268 5322ft 0kts
05-Oct-18 17:37 35.039105 -106.617442 268 5322ft 0kts
05-Oct-18 17:38 35.039105 -106.617442 268 5322ft 0kts
05-Oct-18 17:39 35.039105 -106.617442 268 5322ft 0kts
05-Oct-18 17:40 35.039204 -106.617689 315 5322ft 7kts
05-Oct-18 17:41 35.039312 -106.617811 318 5322ft 0kts
05-Oct-18 17:42 35.039735 -106.620083 271 5322ft 14kts
05-Oct-18 17:43 35.042874 -106.621418 0 5322ft 0kts
05-Oct-18 17:44 35.042902 -106.621417 0 5322ft 1kts
05-Oct-18 17:45 35.042949 -106.621417 0 5322ft 0kts
05-Oct-18 17:46 35.043639 -106.621415 359 5322ft 12kts
05-Oct-18 17:47 35.044271 -106.609880 91 5322ft 123kts
05-Oct-18 17:48 35.047781 -106.548582 43 7670ft 202kts
05-Oct-18 17:49 35.082009 -106.579580 273 9373ft 260kts
05-Oct-18 17:50 35.087407 -106.679808 272 11793ft 327kts
05-Oct-18 17:51 35.096346 -106.791571 277 15563ft 339kts
05-Oct-18 17:52 35.113767 -106.906095 276 18937ft 350kts
05-Oct-18 17:53 35.131672 -107.025150 276 21041ft 363kts
05-Oct-18 17:54 35.149858 -107.146408 275 23956ft 369kts
05-Oct-18 17:55 35.168661 -107.271469 275 26445ft 380kts
05-Oct-18 17:56 35.189370 -107.399517 275 28731ft 390kts
05-Oct-18 17:57 35.210427 -107.529333 275 30116ft 382kts
05-Oct-18 17:58 35.230397 -107.653493 274 30106ft 371kts
05-Oct-18 17:59 35.249428 -107.771660 274 30088ft 378kts
05-Oct-18 18:00 35.269397 -107.899591 274 30115ft 384kts
05-Oct-18 18:01 35.289533 -108.028044 274 30113ft 384kts
05-Oct-18 18:02 35.309512 -108.156143 274 30112ft 384kts
05-Oct-18 18:03 35.329360 -108.284422 274 30108ft 384kts
05-Oct-18 18:04 35.352920 -108.411980 281 30114ft 390kts
05-Oct-18 18:05 35.387119 -108.538176 281 30112ft 389kts
05-Oct-18 18:06 35.420403 -108.662278 281 30094ft 390kts
05-Oct-18 18:07 35.453551 -108.786616 281 30112ft 389kts
05-Oct-18 18:08 35.487291 -108.912188 281 30111ft 390kts
05-Oct-18 18:09 35.522495 -109.037931 283 30114ft 390kts
05-Oct-18 18:10 35.557953 -109.164615 285 30124ft 395kts
05-Oct-18 18:11 35.593648 -109.292700 286 30113ft 397kts
05-Oct-18 18:12 35.629149 -109.420702 286 30111ft 397kts
05-Oct-18 18:13 35.664610 -109.549164 286 30111ft 397kts
05-Oct-18 18:14 35.698783 -109.673592 285 30085ft 397kts
05-Oct-18 18:15 35.723522 -109.764145 285 30094ft 397kts
05-Oct-18 18:16 35.757933 -109.890408 285 30054ft 397kts
05-Oct-18 18:17 35.792484 -110.017766 285 30037ft 397kts
05-Oct-18 18:18 35.827268 -110.146634 285 30038ft 397kts
05-Oct-18 18:19 35.861976 -110.275864 285 30038ft 397kts
05-Oct-18 18:20 35.896430 -110.404759 285 30037ft 397kts
05-Oct-18 18:21 35.930748 -110.533786 285 30038ft 397kts
05-Oct-18 18:22 35.964888 -110.662774 285 30017ft 397kts
05-Oct-18 18:23 35.998368 -110.790066 285 30038ft 397kts
05-Oct-18 18:24 36.032231 -110.919270 285 30033ft 396kts
05-Oct-18 18:25 36.065675 -111.047493 286 30017ft 395kts
05-Oct-18 18:26 36.096054 -111.164506 286 30014ft 395kts
05-Oct-18 18:27 36.133585 -111.289449 305 30020ft 399kts
05-Oct-18 18:28 36.205457 -111.394920 307 28892ft 400kts
05-Oct-18 18:29 36.276433 -111.500902 307 27407ft 404kts
05-Oct-18 18:30 36.325975 -111.619226 293 25888ft 407kts
05-Oct-18 18:31 36.370886 -111.740869 294 24323ft 401kts
05-Oct-18 18:32 36.417602 -111.865639 294 24065ft 399kts
05-Oct-18 18:33 36.464181 -111.990442 294 24086ft 399kts
05-Oct-18 18:34 36.510740 -112.115689 294 24137ft 399kts
05-Oct-18 18:35 36.575797 -112.224246 320 24141ft 404kts
05-Oct-18 18:36 36.665070 -112.308764 320 24136ft 404kts
05-Oct-18 18:37 36.754450 -112.393312 321 24112ft 403kts
05-Oct-18 18:38 36.843535 -112.477562 321 24101ft 403kts
05-Oct-18 18:39 36.932905 -112.562070 321 24101ft 403kts
05-Oct-18 18:40 37.021650 -112.646190 321 22575ft 393kts
05-Oct-18 18:41 37.104523 -112.727302 320 18735ft 378kts
05-Oct-18 18:42 37.184634 -112.807198 320 16080ft 362kts
05-Oct-18 18:43 37.258646 -112.882224 321 15000ft 308kts
05-Oct-18 18:44 37.315589 -112.940969 321 14615ft 255kts
05-Oct-18 18:45 37.358735 -112.985940 321 13388ft 254kts
05-Oct-18 18:46 37.377421 -113.068453 280 11849ft 253kts
05-Oct-18 18:47 37.394136 -113.167547 284 10416ft 241kts
05-Oct-18 18:48 37.399880 -113.237275 248 10388ft 248kts
05-Oct-18 18:49 37.345688 -113.289603 210 10356ft 251kts
05-Oct-18 18:50 37.276841 -113.339738 210 8965ft 239kts
05-Oct-18 18:51 37.230784 -113.373274 210 7451ft 218kts
05-Oct-18 18:52 37.182092 -113.408681 210 6131ft 177kts
05-Oct-18 18:53 37.143827 -113.441892 220 4816ft 161kts
05-Oct-18 18:54 37.110833 -113.471098 202 4668ft 142kts
05-Oct-18 18:55 37.074713 -113.489877 202 3516ft 135kts
05-Oct-18 18:56 37.039891 -113.508441 202 2860ft 109kts
05-Oct-18 18:57 37.031151 -113.511112 114 2860ft 0kts
05-Oct-18 18:58 37.031151 -113.511112 114 2860ft 0kts
05-Oct-18 18:59 37.031150 -113.511110 114 2860ft 0kts

Navigation Log

Ident Type
Flight plan parsing failed, navigation log unavailable